createdAt,value
2023-03-29T00:02:33.971Z,11.62
2023-03-29T00:07:39.384Z,11.61
2023-03-29T00:12:44.266Z,11.60
2023-03-29T00:17:49.935Z,11.59
2023-03-29T00:22:55.125Z,11.61
2023-03-29T00:28:00.039Z,11.60
2023-03-29T00:33:05.192Z,11.59
2023-03-29T00:38:09.945Z,11.57
2023-03-29T00:43:15.595Z,11.57
2023-03-29T00:48:21.673Z,11.56
2023-03-29T00:53:28.026Z,11.55
2023-03-29T00:58:36.216Z,11.54
2023-03-29T01:03:46.064Z,11.54
2023-03-29T01:08:52.027Z,11.53
2023-03-29T01:13:58.970Z,11.50
2023-03-29T01:19:05.092Z,11.50
2023-03-29T01:24:33.560Z,11.49
2023-03-29T01:29:43.427Z,11.48
2023-03-29T01:34:52.287Z,11.47
2023-03-29T01:39:57.425Z,11.44
2023-03-29T01:45:07.907Z,11.42
2023-03-29T01:50:15.238Z,11.43
2023-03-29T01:55:22.798Z,11.41
2023-03-29T02:00:29.187Z,11.39
2023-03-29T02:05:35.438Z,11.37
2023-03-29T02:10:40.449Z,11.36
2023-03-29T02:15:46.278Z,11.35
2023-03-29T02:20:51.821Z,11.32
2023-03-29T02:25:57.315Z,11.31
2023-03-29T02:31:06.088Z,11.30
2023-03-29T02:36:14.250Z,11.28
2023-03-29T02:41:19.498Z,11.27
2023-03-29T02:46:24.619Z,11.25
2023-03-29T02:51:30.496Z,11.24
2023-03-29T02:56:43.463Z,11.22
2023-03-29T03:01:48.482Z,11.20
2023-03-29T03:06:53.883Z,11.20
2023-03-29T03:11:58.876Z,11.19
2023-03-29T03:17:04.858Z,11.17
2023-03-29T03:22:10.191Z,11.15
2023-03-29T03:27:15.399Z,11.14
2023-03-29T03:32:20.561Z,11.13
2023-03-29T03:37:25.408Z,11.13
2023-03-29T03:42:30.664Z,11.10
2023-03-29T03:47:36.946Z,11.10
2023-03-29T03:52:41.866Z,11.07
2023-03-29T03:57:47.634Z,11.08
2023-03-29T04:02:53.926Z,11.07
2023-03-29T04:07:58.264Z,11.06
2023-03-29T04:13:04.212Z,11.03
2023-03-29T04:18:08.909Z,11.02
2023-03-29T04:23:13.926Z,11.03
2023-03-29T04:28:18.278Z,11.02
2023-03-29T04:33:23.066Z,11.01
2023-03-29T04:38:27.389Z,10.98
2023-03-29T04:43:32.127Z,10.96
2023-03-29T04:48:37.288Z,10.96
2023-03-29T04:53:42.021Z,10.95
2023-03-29T04:58:46.661Z,10.94
2023-03-29T05:03:52.221Z,10.93
2023-03-29T05:08:57.269Z,10.93
2023-03-29T05:14:03.137Z,10.97
2023-03-29T05:19:08.861Z,11.09
2023-03-29T05:24:14.079Z,11.18
2023-03-29T05:29:19.140Z,11.29
2023-03-29T05:34:23.988Z,11.37
2023-03-29T05:39:28.767Z,11.42
2023-03-29T05:44:33.986Z,11.46
2023-03-29T05:49:38.945Z,11.51
2023-03-29T05:54:43.348Z,11.55
2023-03-29T05:59:48.118Z,11.60
2023-03-29T06:04:53.671Z,11.63
2023-03-29T06:09:58.651Z,11.68
2023-03-29T06:15:04.747Z,11.71
2023-03-29T06:20:10.916Z,11.75
2023-03-29T06:25:17.287Z,11.79
2023-03-29T06:30:22.238Z,11.82
2023-03-29T06:35:27.760Z,11.83
2023-03-29T06:40:33.156Z,11.86
2023-03-29T06:45:38.391Z,11.87
2023-03-29T06:50:43.513Z,11.90
2023-03-29T06:55:48.528Z,11.92
2023-03-29T07:00:53.523Z,11.94
2023-03-29T07:06:04.048Z,11.96
2023-03-29T07:11:09.997Z,11.96
2023-03-29T07:16:14.844Z,11.94
2023-03-29T07:21:20.025Z,11.93
2023-03-29T07:26:28.545Z,11.91
2023-03-29T07:31:36.017Z,11.92
2023-03-29T07:36:43.600Z,11.98
2023-03-29T07:41:48.780Z,12.00
2023-03-29T07:46:53.940Z,12.01
2023-03-29T07:51:58.892Z,12.04
2023-03-29T07:57:04.190Z,12.03
2023-03-29T08:02:10.144Z,12.03
2023-03-29T08:07:17.650Z,12.04
2023-03-29T08:12:25.104Z,12.06
2023-03-29T08:17:30.072Z,12.06
2023-03-29T08:22:34.891Z,12.09
2023-03-29T08:27:39.563Z,12.10
2023-03-29T08:37:49.399Z,12.00
2023-03-29T08:43:03.231Z,11.97
2023-03-29T08:48:13.459Z,11.96
2023-03-29T08:53:19.767Z,11.98
2023-03-29T08:58:26.313Z,11.97
2023-03-29T09:03:32.606Z,11.95
2023-03-29T09:08:39.618Z,11.94
2023-03-29T09:13:49.635Z,11.93
2023-03-29T09:19:01.185Z,11.93
2023-03-29T09:24:12.770Z,11.92
2023-03-29T09:29:34.096Z,11.93
2023-03-29T09:34:43.826Z,11.96
2023-03-29T09:39:49.232Z,12.00
2023-03-29T09:44:57.229Z,12.00
2023-03-29T09:50:03.304Z,12.04
2023-03-29T09:55:13.897Z,12.04
2023-03-29T10:00:20.334Z,12.04
2023-03-29T10:05:26.342Z,12.01
2023-03-29T10:10:31.732Z,12.03
2023-03-29T10:15:36.799Z,12.03
2023-03-29T10:20:41.936Z,12.02
2023-03-29T10:25:46.766Z,12.01
2023-03-29T10:30:55.111Z,12.00
2023-03-29T10:36:01.015Z,12.00
2023-03-29T10:41:08.376Z,11.97
2023-03-29T10:46:19.542Z,11.95
2023-03-29T10:51:25.218Z,11.94
2023-03-29T10:56:38.737Z,11.92
2023-03-29T11:01:45.900Z,11.91
2023-03-29T11:06:57.482Z,11.89
2023-03-29T11:12:14.944Z,11.87
2023-03-29T11:17:26.344Z,11.86
2023-03-29T11:22:37.099Z,11.83
2023-03-29T11:27:47.269Z,11.82
2023-03-29T11:32:57.075Z,11.80
2023-03-29T11:38:06.794Z,11.79
2023-03-29T11:43:13.644Z,11.78
2023-03-29T11:48:22.037Z,11.76
2023-03-29T11:53:30.165Z,11.74
2023-03-29T11:58:39.083Z,11.74
2023-03-29T12:03:47.332Z,11.72
2023-03-29T12:08:55.362Z,11.71
2023-03-29T12:14:03.217Z,11.70
2023-03-29T12:19:13.113Z,11.69
2023-03-29T12:24:18.972Z,11.68
2023-03-29T12:29:33.903Z,11.68
2023-03-29T12:34:48.246Z,11.67
2023-03-29T12:39:53.326Z,11.67
2023-03-29T12:45:00.060Z,11.65
2023-03-29T12:50:05.200Z,11.63
2023-03-29T12:55:23.442Z,11.63
2023-03-29T13:00:33.356Z,11.64
2023-03-29T13:05:38.297Z,11.63
2023-03-29T13:10:43.540Z,11.61
2023-03-29T13:15:48.323Z,11.61
2023-03-29T13:21:00.019Z,11.60
2023-03-29T13:26:13.758Z,11.61
2023-03-29T13:31:26.820Z,11.61
2023-03-29T13:36:38.868Z,11.61
2023-03-29T13:41:48.822Z,11.61
2023-03-29T13:47:03.306Z,11.60
2023-03-29T13:52:15.893Z,11.60
2023-03-29T13:57:22.397Z,11.61
2023-03-29T14:02:32.261Z,11.59
2023-03-29T14:07:38.741Z,11.59
2023-03-29T14:12:44.046Z,11.58
2023-03-29T14:17:49.189Z,11.58
2023-03-29T14:22:54.179Z,11.58
2023-03-29T14:27:58.990Z,11.57
2023-03-29T14:33:04.831Z,11.56
2023-03-29T14:38:12.407Z,11.56
2023-03-29T14:43:18.474Z,11.56
2023-03-29T14:48:23.851Z,11.56
2023-03-29T14:53:30.381Z,11.55
2023-03-29T14:58:38.087Z,11.55
2023-03-29T15:03:51.707Z,11.54
2023-03-29T15:09:05.405Z,11.54
2023-03-29T15:14:16.615Z,11.55
2023-03-29T15:19:22.193Z,11.54
2023-03-29T15:24:30.420Z,11.53
2023-03-29T15:29:36.738Z,11.53
2023-03-29T15:34:41.886Z,11.52
2023-03-29T15:39:46.758Z,11.54
2023-03-29T15:44:53.845Z,11.58
2023-03-29T15:49:58.620Z,11.59
2023-03-29T15:55:03.457Z,11.60
2023-03-29T16:00:14.140Z,11.62
2023-03-29T16:05:19.277Z,11.62
2023-03-29T16:10:24.167Z,11.63
2023-03-29T16:15:28.979Z,11.63
2023-03-29T16:20:33.612Z,11.65
2023-03-29T16:25:39.525Z,11.66
2023-03-29T16:30:44.724Z,11.69
2023-03-29T16:35:49.403Z,11.70
2023-03-29T16:40:54.689Z,11.72
2023-03-29T16:46:00.096Z,11.72
2023-03-29T16:51:05.433Z,11.74
2023-03-29T16:56:10.513Z,11.74
2023-03-29T17:01:15.851Z,11.76
2023-03-29T17:06:20.893Z,11.78
2023-03-29T17:11:26.500Z,11.78
2023-03-29T17:16:31.933Z,11.80
2023-03-29T17:21:37.142Z,11.81
2023-03-29T17:26:43.846Z,11.83
2023-03-29T17:31:49.930Z,11.84
2023-03-29T17:36:55.052Z,11.86
2023-03-29T17:42:00.041Z,11.88
2023-03-29T17:47:05.244Z,11.88
2023-03-29T17:52:10.388Z,11.90
2023-03-29T17:57:16.271Z,11.89
2023-03-29T18:02:22.204Z,11.89
2023-03-29T18:07:28.062Z,11.90
2023-03-29T18:12:32.760Z,11.89
2023-03-29T18:17:38.347Z,11.90
2023-03-29T18:22:45.207Z,11.90
2023-03-29T18:27:50.638Z,11.90
2023-03-29T18:32:55.545Z,11.89
2023-03-29T18:38:01.060Z,11.89
2023-03-29T18:43:06.335Z,11.89
2023-03-29T18:48:11.207Z,11.89
2023-03-29T18:53:16.314Z,11.89
2023-03-29T18:58:23.819Z,11.88
2023-03-29T19:03:28.508Z,11.89
2023-03-29T19:08:33.992Z,11.89
2023-03-29T19:13:38.796Z,11.88
2023-03-29T19:18:43.865Z,11.88
2023-03-29T19:23:52.485Z,11.88
2023-03-29T19:28:57.463Z,11.88
2023-03-29T19:34:02.948Z,11.88
2023-03-29T19:39:07.960Z,11.87
2023-03-29T19:44:13.486Z,11.87
2023-03-29T19:49:18.597Z,11.87
2023-03-29T19:54:23.286Z,11.86
2023-03-29T19:59:28.505Z,11.86
2023-03-29T20:04:33.706Z,11.86
2023-03-29T20:09:38.583Z,11.85
2023-03-29T20:14:43.458Z,11.85
2023-03-29T20:19:48.387Z,11.85
2023-03-29T20:24:53.086Z,11.85
2023-03-29T20:29:57.988Z,11.85
2023-03-29T20:35:02.956Z,11.83
2023-03-29T20:40:08.816Z,11.84
2023-03-29T20:45:18.973Z,11.84
2023-03-29T20:50:26.345Z,11.85
2023-03-29T20:55:32.896Z,11.85
2023-03-29T21:00:38.065Z,11.84
2023-03-29T21:05:43.084Z,11.83
2023-03-29T21:10:48.260Z,11.83
2023-03-29T21:15:53.402Z,11.82
2023-03-29T21:20:58.056Z,11.82
2023-03-29T21:26:02.749Z,11.82
2023-03-29T21:31:07.883Z,11.82
2023-03-29T21:36:12.692Z,11.81
2023-03-29T21:41:17.532Z,11.80
2023-03-29T21:46:22.508Z,11.80
2023-03-29T21:51:27.293Z,11.80
2023-03-29T21:56:32.082Z,11.80
2023-03-29T22:01:36.558Z,11.80
2023-03-29T22:06:41.532Z,11.79
2023-03-29T22:11:46.411Z,11.80
2023-03-29T22:16:51.532Z,11.79
2023-03-29T22:22:01.133Z,11.78
2023-03-29T22:27:06.383Z,11.79
2023-03-29T22:32:11.528Z,11.78
2023-03-29T22:37:17.912Z,11.77
2023-03-29T22:42:23.413Z,11.77
2023-03-29T22:47:28.011Z,11.76
2023-03-29T22:52:32.753Z,11.76
2023-03-29T22:57:37.782Z,11.75
2023-03-29T23:02:43.078Z,11.75
2023-03-29T23:07:47.699Z,11.74
2023-03-29T23:12:53.418Z,11.74
2023-03-29T23:17:58.348Z,11.74
2023-03-29T23:23:03.805Z,11.74
2023-03-29T23:28:08.441Z,11.73
2023-03-29T23:33:14.155Z,11.73
2023-03-29T23:38:19.316Z,11.73
2023-03-29T23:43:24.569Z,11.71
2023-03-29T23:48:29.243Z,11.71
2023-03-29T23:53:33.966Z,11.72
2023-03-29T23:58:39.179Z,11.72
